Time;durP1;ratioP1;P1;durP2;ratioP2;P2;SDS_P1;SDS_P2;PMS_P1;PMS_P2;Temp;Humidity;BMP_temperature;BMP_pressure;BME280_temperature;BME280_humidity;BME280_pressure;Samples;Min_cycle;Max_cycle;Signal;HPM_P1;HPM_P2
2024/03/08 00:00:33;;;;;;;33.13;16.52;;;5.30;90.60;;;;;;5070564;28;20020;-92
2024/03/08 00:03:00;;;;;;;33.40;16.10;;;5.20;90.80;;;;;;5094395;28;20024;-93
2024/03/08 00:05:27;;;;;;;29.92;14.10;;;5.20;91.10;;;;;;5085659;28;20096;-94
2024/03/08 00:07:53;;;;;;;34.78;15.82;;;5.20;90.90;;;;;;5067868;28;20048;-94
2024/03/08 00:10:20;;;;;;;37.35;16.80;;;5.20;90.80;;;;;;5083637;28;20039;-93
2024/03/08 00:12:46;;;;;;;32.88;16.05;;;5.20;91.00;;;;;;5089281;28;20016;-93
2024/03/08 00:15:15;;;;;;;34.88;15.45;;;5.10;90.90;;;;;;5095210;28;20020;-93
2024/03/08 00:17:41;;;;;;;34.33;15.68;;;5.10;91.10;;;;;;5065041;28;20035;-94
2024/03/08 00:20:10;;;;;;;32.20;15.88;;;5.10;91.20;;;;;;5081895;28;20482;-93
2024/03/08 00:22:39;;;;;;;34.47;16.50;;;5.00;91.30;;;;;;5084513;28;20176;-93
2024/03/08 00:25:14;;;;;;;32.13;18.33;;;5.00;91.40;;;;;;5068567;28;20024;-95
2024/03/08 00:27:42;;;;;;;29.95;15.85;;;5.00;91.40;;;;;;5075592;28;20021;-93
2024/03/08 00:30:08;;;;;;;34.13;17.15;;;4.90;91.60;;;;;;5065239;28;20052;-92
2024/03/08 00:32:35;;;;;;;38.42;16.75;;;4.90;91.70;;;;;;5099202;28;20100;-93
2024/03/08 00:35:01;;;;;;;32.40;15.98;;;4.90;91.70;;;;;;5073335;28;20474;-94
2024/03/08 00:37:28;;;;;;;37.65;16.08;;;4.90;91.80;;;;;;5085226;28;20031;-93
2024/03/08 00:39:53;;;;;;;35.70;16.48;;;4.80;92.00;;;;;;5064802;28;20032;-92
2024/03/08 00:42:44;;;;;;;38.88;18.05;;;4.80;92.10;;;;;;5082953;28;20115;-92
2024/03/08 00:45:11;;;;;;;35.78;16.83;;;4.80;92.00;;;;;;5103371;28;20099;-92
2024/03/08 00:47:37;;;;;;;33.17;16.13;;;4.70;92.20;;;;;;5084440;28;20186;-95
2024/03/08 00:50:06;;;;;;;36.55;19.80;;;4.70;92.50;;;;;;5095632;28;20115;-93
2024/03/08 00:52:32;;;;;;;36.70;16.25;;;4.60;92.60;;;;;;5095376;28;20043;-94
2024/03/08 00:54:57;;;;;;;41.38;20.45;;;4.70;92.90;;;;;;5085862;28;20243;-93
2024/03/08 00:57:23;;;;;;;36.38;17.63;;;4.60;92.90;;;;;;5104323;28;20027;-93
2024/03/08 00:59:49;;;;;;;37.50;17.20;;;4.60;92.80;;;;;;5103889;28;20028;-94
2024/03/08 01:02:18;;;;;;;33.63;15.68;;;4.60;92.80;;;;;;5094113;28;20103;-94
2024/03/08 01:04:47;;;;;;;40.03;17.42;;;4.50;92.90;;;;;;5065543;28;20025;-94
2024/03/08 01:07:16;;;;;;;33.25;15.90;;;4.60;93.30;;;;;;5091343;28;20051;-93
2024/03/08 01:09:42;;;;;;;35.53;17.42;;;4.50;93.40;;;;;;5097259;28;20035;-93
2024/03/08 01:12:10;;;;;;;35.30;18.00;;;4.50;93.30;;;;;;5103271;28;20024;-95
2024/03/08 01:14:39;;;;;;;36.47;15.00;;;4.50;93.50;;;;;;5090711;28;20021;-93
2024/03/08 01:17:05;;;;;;;40.05;19.00;;;4.40;93.60;;;;;;5072959;28;20059;-93
2024/03/08 01:19:32;;;;;;;35.08;15.88;;;4.40;93.50;;;;;;5102672;28;20043;-93
2024/03/08 01:21:57;;;;;;;37.00;16.30;;;4.40;93.70;;;;;;5078094;28;20090;-93
2024/03/08 01:24:23;;;;;;;38.47;16.85;;;4.40;93.80;;;;;;5083310;28;20028;-93
2024/03/08 01:26:49;;;;;;;35.75;17.15;;;4.30;93.80;;;;;;5084456;28;20028;-92
2024/03/08 01:29:18;;;;;;;35.65;16.38;;;4.30;93.90;;;;;;5092170;28;20024;-93
2024/03/08 01:31:43;;;;;;;37.50;16.25;;;4.30;94.00;;;;;;5102807;28;20020;-94
2024/03/08 01:34:10;;;;;;;39.08;16.10;;;4.30;94.20;;;;;;5085174;28;20054;-93
2024/03/08 01:36:38;;;;;;;40.80;18.17;;;4.20;94.20;;;;;;5077895;28;20020;-94
2024/03/08 01:39:13;;;;;;;36.85;18.42;;;4.20;94.30;;;;;;5085656;28;20033;-93
2024/03/08 01:41:41;;;;;;;37.63;16.60;;;4.10;94.60;;;;;;5084548;28;20020;-94
2024/03/08 01:44:31;;;;;;;38.22;18.10;;;4.10;94.60;;;;;;5086603;28;20031;-92
2024/03/08 01:47:00;;;;;;;35.92;16.13;;;4.10;94.90;;;;;;5069815;28;20032;-94
2024/03/08 01:49:29;;;;;;;36.30;18.40;;;4.10;94.90;;;;;;5083274;28;20086;-93
2024/03/08 01:51:56;;;;;;;32.95;17.33;;;4.10;95.10;;;;;;5083498;28;20047;-93
2024/03/08 01:54:28;;;;;;;46.33;19.58;;;4.00;95.00;;;;;;5064494;28;20027;-94
2024/03/08 01:57:02;;;;;;;40.88;17.73;;;4.00;95.40;;;;;;5086244;28;20031;-93
2024/03/08 01:59:37;;;;;;;;;;;3.90;95.20;;;;;;5067381;28;20032;-93
2024/03/08 02:02:05;;;;;;;34.88;15.35;;;3.90;95.50;;;;;;5090562;28;19911;-93
2024/03/08 02:04:31;;;;;;;32.95;15.82;;;3.90;95.40;;;;;;5074012;28;20052;-93
2024/03/08 02:07:00;;;;;;;33.92;16.23;;;3.90;95.50;;;;;;5081072;28;20027;-94
2024/03/08 02:09:29;;;;;;;40.15;16.17;;;3.90;95.60;;;;;;5085025;28;20029;-93
2024/03/08 02:11:56;;;;;;;39.95;16.83;;;3.80;95.70;;;;;;5097215;28;20021;-93
2024/03/08 02:14:22;;;;;;;42.72;17.85;;;3.80;95.60;;;;;;5083071;28;20017;-93
2024/03/08 02:16:51;;;;;;;36.25;17.10;;;3.80;95.80;;;;;;5083187;28;20031;-93
2024/03/08 02:19:20;;;;;;;37.90;17.25;;;3.70;96.10;;;;;;5075078;28;20036;-94
2024/03/08 02:21:47;;;;;;;39.97;18.02;;;3.70;96.00;;;;;;5072218;28;20069;-94
2024/03/08 02:24:13;;;;;;;37.50;17.77;;;3.70;96.00;;;;;;5065533;28;20044;-91
2024/03/08 02:26:42;;;;;;;39.60;18.02;;;3.70;96.00;;;;;;5086391;28;20032;-93
2024/03/08 02:29:09;;;;;;;35.03;17.48;;;3.70;96.10;;;;;;5075652;28;20530;-95
2024/03/08 02:31:34;;;;;;;36.90;16.70;;;3.70;95.90;;;;;;5083326;28;20044;-92
2024/03/08 02:34:06;;;;;;;37.95;19.23;;;3.60;95.90;;;;;;5077779;28;20021;-94
2024/03/08 02:36:34;;;;;;;33.45;16.38;;;3.60;96.00;;;;;;5064859;28;20024;-95
2024/03/08 02:39:02;;;;;;;41.28;17.92;;;3.60;96.00;;;;;;5063401;28;20049;-93
2024/03/08 02:41:28;;;;;;;35.17;15.93;;;3.60;96.00;;;;;;5083582;28;20429;-94
2024/03/08 02:43:55;;;;;;;34.10;15.80;;;3.60;96.30;;;;;;5088194;28;20020;-93
2024/03/08 02:46:21;;;;;;;34.67;17.40;;;3.50;96.30;;;;;;5087163;28;20035;-93
2024/03/08 02:48:49;;;;;;;39.35;18.17;;;3.60;96.30;;;;;;5067904;28;20028;-93
2024/03/08 02:51:21;;;;;;;37.03;16.80;;;3.50;96.40;;;;;;5082981;28;20389;-93
2024/03/08 02:53:51;;;;;;;37.35;17.17;;;3.50;96.20;;;;;;5085911;28;20021;-95
2024/03/08 02:56:17;;;;;;;38.35;17.88;;;3.50;96.40;;;;;;5076453;28;20080;-94
2024/03/08 02:58:48;;;;;;;36.22;17.05;;;3.40;96.40;;;;;;5067323;28;20020;-94
2024/03/08 03:01:15;;;;;;;35.88;16.42;;;3.40;96.50;;;;;;5103505;28;20034;-93
2024/03/08 03:03:42;;;;;;;34.17;16.50;;;3.40;96.80;;;;;;5105781;28;20028;-94
2024/03/08 03:06:08;;;;;;;41.72;16.13;;;3.30;96.80;;;;;;5087714;28;20024;-95
2024/03/08 03:08:57;;;;;;;38.15;15.82;;;3.30;96.90;;;;;;5088592;28;20122;-93
2024/03/08 03:11:25;;;;;;;36.63;16.27;;;3.30;96.90;;;;;;5079810;28;20106;-95
2024/03/08 03:13:51;;;;;;;40.15;17.63;;;3.30;97.10;;;;;;5091441;28;20027;-94
2024/03/08 03:16:33;;;;;;;40.55;18.85;;;3.30;97.00;;;;;;5106441;28;20008;-93
2024/03/08 03:19:01;;;;;;;39.08;16.27;;;3.30;97.20;;;;;;5068448;28;20040;-94
2024/03/08 03:21:35;;;;;;;38.45;17.02;;;3.20;97.30;;;;;;5086622;28;20040;-93
2024/03/08 03:24:01;;;;;;;37.17;15.75;;;3.20;97.40;;;;;;5083875;28;20032;-94
2024/03/08 03:26:27;;;;;;;39.55;18.73;;;3.20;97.40;;;;;;5082479;28;20124;-94
2024/03/08 03:28:53;;;;;;;34.63;15.50;;;3.20;97.30;;;;;;5089088;28;20068;-94
2024/03/08 03:31:23;;;;;;;35.97;16.13;;;3.20;97.50;;;;;;5075828;28;20560;-92
2024/03/08 03:33:51;;;;;;;37.78;16.30;;;3.10;97.30;;;;;;5098463;28;20107;-94
2024/03/08 03:36:17;;;;;;;33.13;16.52;;;3.10;97.50;;;;;;5086748;28;20166;-93
2024/03/08 03:38:43;;;;;;;38.05;18.20;;;3.10;97.60;;;;;;5092867;28;20537;-92
2024/03/08 03:41:15;;;;;;;36.13;16.70;;;3.10;97.50;;;;;;5101830;28;20028;-94
2024/03/08 03:43:41;;;;;;;35.22;17.88;;;3.10;97.50;;;;;;5105894;28;20020;-93
2024/03/08 03:46:10;;;;;;;42.40;16.60;;;3.10;97.50;;;;;;5079017;28;20092;-93
2024/03/08 03:48:36;;;;;;;36.45;18.73;;;3.00;97.40;;;;;;5074714;28;20028;-93
2024/03/08 03:51:09;;;;;;;41.47;20.10;;;3.00;97.70;;;;;;5074221;28;20024;-92
2024/03/08 03:53:35;;;;;;;40.17;17.30;;;3.00;97.70;;;;;;5104220;28;20153;-94
2024/03/08 03:56:06;;;;;;;37.78;18.02;;;2.90;97.80;;;;;;5103898;28;20051;-93
2024/03/08 03:58:32;;;;;;;37.35;15.57;;;2.90;97.90;;;;;;5085905;28;20032;-93
2024/03/08 04:01:01;;;;;;;37.28;16.17;;;2.90;97.90;;;;;;5079261;28;20024;-94
2024/03/08 04:03:26;;;;;;;40.03;17.75;;;2.90;98.10;;;;;;5075402;28;20074;-94
2024/03/08 04:05:52;;;;;;;36.33;16.85;;;2.80;98.00;;;;;;5099173;28;20028;-93
2024/03/08 04:08:20;;;;;;;36.85;16.58;;;2.80;97.80;;;;;;5069163;28;20062;-93
2024/03/08 04:10:53;;;;;;;43.92;18.23;;;2.80;97.90;;;;;;5072400;28;20061;-94
2024/03/08 04:13:26;;;;;;;30.00;18.20;;;2.90;97.80;;;;;;5076731;28;20465;-93
2024/03/08 04:15:51;;;;;;;35.80;17.20;;;2.80;97.90;;;;;;5087160;28;20023;-94
2024/03/08 04:18:20;;;;;;;39.83;17.08;;;2.80;97.90;;;;;;5086755;28;20028;-93
2024/03/08 04:20:46;;;;;;;36.03;15.00;;;2.80;97.90;;;;;;5098908;28;20074;-93
2024/03/08 04:23:12;;;;;;;35.30;14.52;;;2.80;97.90;;;;;;5084127;28;20024;-92
2024/03/08 04:25:38;;;;;;;40.58;16.80;;;2.70;98.20;;;;;;5084708;28;20025;-93
2024/03/08 04:28:04;;;;;;;36.47;16.30;;;2.70;98.20;;;;;;5097365;28;20024;-94
2024/03/08 04:30:30;;;;;;;40.53;17.00;;;2.60;98.20;;;;;;5092781;28;20031;-91
2024/03/08 04:32:56;;;;;;;38.80;17.38;;;2.60;98.50;;;;;;5090373;28;20024;-94
2024/03/08 04:35:22;;;;;;;37.83;16.75;;;2.60;98.50;;;;;;5086027;28;20020;-94
2024/03/08 04:37:47;;;;;;;40.88;17.52;;;2.60;98.70;;;;;;5086724;28;20021;-93
2024/03/08 04:40:19;;;;;;;37.78;16.75;;;2.60;98.70;;;;;;5085319;28;20035;-94
2024/03/08 04:42:50;;;;;;;40.92;18.88;;;2.50;98.60;;;;;;5095422;28;20024;-93
2024/03/08 04:45:21;;;;;;;37.17;16.70;;;2.50;98.80;;;;;;5085248;28;20023;-93
2024/03/08 04:47:47;;;;;;;38.70;17.27;;;2.50;99.10;;;;;;5070160;28;20114;-93
2024/03/08 04:50:13;;;;;;;39.88;17.95;;;2.40;99.00;;;;;;5085780;28;20036;-94
2024/03/08 04:52:59;;;;;;;35.10;15.02;;;2.50;98.70;;;;;;5104376;28;20058;-94
2024/03/08 04:55:24;;;;;;;34.05;15.20;;;2.50;98.50;;;;;;5086032;28;20023;-92
2024/03/08 04:57:59;;;;;;;34.10;15.45;;;2.40;98.60;;;;;;5104988;28;20020;-94
2024/03/08 05:00:25;;;;;;;34.28;16.35;;;2.50;98.30;;;;;;5067518;28;20043;-92
2024/03/08 05:02:56;;;;;;;31.67;14.93;;;2.40;98.30;;;;;;5067944;28;20028;-93
2024/03/08 05:05:22;;;;;;;33.30;15.35;;;2.40;98.20;;;;;;5085659;28;20024;-94
2024/03/08 05:07:48;;;;;;;33.45;15.90;;;2.40;97.70;;;;;;5106316;28;20130;-94
2024/03/08 05:10:17;;;;;;;47.55;20.27;;;2.40;97.70;;;;;;5091729;28;20043;-92
2024/03/08 05:12:43;;;;;;;41.72;17.95;;;2.40;97.80;;;;;;5106622;28;20028;-93
2024/03/08 05:15:09;;;;;;;37.08;16.70;;;2.40;97.70;;;;;;5092962;28;20013;-95
2024/03/08 05:17:35;;;;;;;32.38;15.32;;;2.40;97.70;;;;;;5098103;28;20020;-93
2024/03/08 05:20:00;;;;;;;35.15;18.95;;;2.40;97.80;;;;;;5099498;28;20260;-93
2024/03/08 05:22:26;;;;;;;35.97;17.35;;;2.30;97.70;;;;;;5094493;28;20032;-94
2024/03/08 05:24:55;;;;;;;36.20;16.73;;;2.30;97.60;;;;;;5089491;28;20494;-93
2024/03/08 05:27:24;;;;;;;38.47;16.75;;;2.30;97.70;;;;;;5073903;28;20036;-93
2024/03/08 05:29:49;;;;;;;32.97;15.57;;;2.30;97.70;;;;;;5077590;28;20036;-94
2024/03/08 05:32:18;;;;;;;37.97;17.75;;;2.30;97.50;;;;;;5101216;28;20024;-92
2024/03/08 05:34:44;;;;;;;35.78;16.08;;;2.30;98.40;;;;;;5084566;28;20094;-92
2024/03/08 05:37:11;;;;;;;34.42;15.80;;;2.30;97.60;;;;;;5064078;28;20050;-91
2024/03/08 05:39:36;;;;;;;35.85;15.48;;;2.20;97.40;;;;;;5083500;28;20028;-93
2024/03/08 05:42:02;;;;;;;40.53;17.67;;;2.30;97.60;;;;;;5094211;28;20581;-93
2024/03/08 05:44:31;;;;;;;35.38;16.15;;;2.30;97.50;;;;;;5095688;28;20033;-93
2024/03/08 05:46:59;;;;;;;36.13;16.63;;;2.30;97.50;;;;;;5076981;28;20029;-92
2024/03/08 05:49:25;;;;;;;39.40;16.35;;;2.30;97.90;;;;;;5097933;28;20027;-92
2024/03/08 05:51:51;;;;;;;37.55;16.73;;;2.30;97.10;;;;;;5071151;28;20115;-93
2024/03/08 05:54:17;;;;;;;37.10;15.30;;;2.30;97.40;;;;;;5079286;28;20030;-92
2024/03/08 05:56:43;;;;;;;35.33;15.48;;;2.30;97.00;;;;;;5090853;28;20024;-91
2024/03/08 05:59:10;;;;;;;39.13;16.55;;;2.30;96.80;;;;;;5096820;28;20038;-93
2024/03/08 06:01:36;;;;;;;33.45;14.80;;;2.30;96.70;;;;;;5096734;28;20028;-93
2024/03/08 06:04:03;;;;;;;37.90;15.68;;;2.30;96.50;;;;;;5099366;28;20113;-93
2024/03/08 06:06:29;;;;;;;38.13;17.10;;;2.30;97.00;;;;;;5077770;28;20040;-92
2024/03/08 06:08:59;;;;;;;29.33;15.25;;;2.40;96.30;;;;;;5097198;28;20139;-91
2024/03/08 06:11:30;;;;;;;34.08;15.23;;;2.40;96.10;;;;;;5075628;28;20230;-94
2024/03/08 06:13:59;;;;;;;35.30;16.45;;;2.40;96.20;;;;;;5078425;28;20062;-93
2024/03/08 06:16:28;;;;;;;39.80;15.95;;;2.40;96.00;;;;;;5081811;28;20020;-93
2024/03/08 06:18:57;;;;;;;33.60;15.93;;;2.40;95.60;;;;;;5081269;28;20494;-93
2024/03/08 06:21:25;;;;;;;33.92;16.48;;;2.40;95.60;;;;;;5075730;28;20028;-91
2024/03/08 06:23:55;;;;;;;37.67;17.50;;;2.40;95.80;;;;;;5102124;28;20027;-92
2024/03/08 06:26:21;;;;;;;36.10;15.77;;;2.40;95.60;;;;;;5084222;28;20020;-91
2024/03/08 06:28:48;;;;;;;36.05;15.68;;;2.40;95.70;;;;;;5095290;28;20513;-89
2024/03/08 06:31:14;;;;;;;35.58;14.93;;;2.40;95.70;;;;;;5085446;28;20215;-92
2024/03/08 06:33:40;;;;;;;35.83;16.10;;;2.40;95.60;;;;;;5070815;28;20107;-92
2024/03/08 06:36:07;;;;;;;35.47;15.00;;;2.50;95.80;;;;;;5086176;28;20051;-93
2024/03/08 06:38:32;;;;;;;40.30;16.38;;;2.50;95.30;;;;;;5069642;28;20047;-91
2024/03/08 06:40:58;;;;;;;35.60;17.67;;;2.50;95.10;;;;;;5089468;28;20033;-91
2024/03/08 06:43:32;;;;;;;36.10;18.05;;;2.50;95.40;;;;;;5087190;28;20024;-90
2024/03/08 06:45:58;;;;;;;38.05;15.93;;;2.50;95.00;;;;;;5105811;28;20315;-93
2024/03/08 06:48:23;;;;;;;34.50;16.67;;;2.60;94.80;;;;;;5068583;28;20028;-93
2024/03/08 06:50:49;;;;;;;38.67;17.75;;;2.60;94.80;;;;;;5092231;28;20056;-93
2024/03/08 06:53:17;;;;;;;32.15;15.48;;;2.70;94.40;;;;;;5081660;28;20031;-91
2024/03/08 06:55:44;;;;;;;;;;;2.60;94.50;;;;;;5065964;28;20028;-93
2024/03/08 06:58:10;;;;;;;35.20;16.48;;;2.70;94.30;;;;;;5090463;28;19911;-93
2024/03/08 07:00:37;;;;;;;33.72;14.27;;;2.70;94.00;;;;;;5071450;28;20043;-91
2024/03/08 07:03:03;;;;;;;32.05;16.88;;;2.70;94.10;;;;;;5080310;28;20055;-93
2024/03/08 07:05:30;;;;;;;37.65;17.80;;;2.80;93.50;;;;;;5084903;28;20095;-91
2024/03/08 07:07:56;;;;;;;32.35;14.75;;;2.80;93.40;;;;;;5104475;28;20024;-91
2024/03/08 07:10:25;;;;;;;35.30;14.73;;;2.80;93.40;;;;;;5078732;28;20063;-91
2024/03/08 07:12:52;;;;;;;36.05;17.40;;;2.90;92.90;;;;;;5092892;28;20039;-93
2024/03/08 07:15:19;;;;;;;36.72;15.73;;;2.90;92.80;;;;;;5097151;28;20024;-90
2024/03/08 07:17:46;;;;;;;37.47;15.90;;;2.90;92.30;;;;;;5090784;28;20024;-93
2024/03/08 07:20:18;;;;;;;36.03;16.60;;;3.00;92.30;;;;;;5092512;28;20050;-92
2024/03/08 07:22:48;;;;;;;36.13;15.25;;;3.00;92.10;;;;;;5094456;28;20028;-92
2024/03/08 07:25:29;;;;;;;33.97;15.65;;;3.10;91.50;;;;;;5083786;28;20031;-92
2024/03/08 07:27:58;;;;;;;;;;;3.10;91.20;;;;;;5097211;28;20025;-90
2024/03/08 07:33:11;;;;;;;32.75;15.57;;;3.20;91.30;;;;;;5092819;28;20479;-91
2024/03/08 07:35:38;;;;;;;41.22;15.80;;;3.30;90.60;;;;;;5072705;28;20020;-92
2024/03/08 07:38:11;;;;;;;39.00;16.30;;;3.30;90.20;;;;;;5082836;28;20020;-91
2024/03/08 07:40:46;;;;;;;38.15;16.23;;;3.40;90.20;;;;;;5089092;28;20091;-91
2024/03/08 07:43:12;;;;;;;34.60;15.90;;;3.40;90.00;;;;;;5071577;28;20031;-92
2024/03/08 07:45:39;;;;;;;36.90;15.52;;;3.50;89.60;;;;;;5095933;28;20029;-92
2024/03/08 07:48:09;;;;;;;34.63;16.95;;;3.50;89.30;;;;;;5078387;28;20024;-91
2024/03/08 07:50:37;;;;;;;34.65;15.50;;;3.60;89.50;;;;;;5094694;28;20024;-93
2024/03/08 07:53:06;;;;;;;35.38;17.17;;;3.70;88.80;;;;;;5102386;28;20042;-92
2024/03/08 07:55:32;;;;;;;36.35;18.00;;;3.70;88.20;;;;;;5096309;28;20543;-92
2024/03/08 07:57:59;;;;;;;30.48;16.77;;;3.80;88.40;;;;;;5071853;28;20059;-92
2024/03/08 08:00:26;;;;;;;33.80;16.33;;;3.90;87.90;;;;;;5097564;28;20032;-91
2024/03/08 08:02:55;;;;;;;36.25;15.25;;;4.00;87.50;;;;;;5106810;28;20083;-92
2024/03/08 08:05:23;;;;;;;32.28;16.50;;;4.00;87.80;;;;;;5087052;28;20047;-93
2024/03/08 08:07:49;;;;;;;37.97;16.63;;;4.10;87.40;;;;;;5073981;28;20160;-94
2024/03/08 08:10:21;;;;;;;33.00;16.90;;;4.20;87.20;;;;;;5092262;28;20024;-92
2024/03/08 08:12:52;;;;;;;33.55;14.55;;;4.30;86.60;;;;;;5114955;28;20062;-94
2024/03/08 08:15:18;;;;;;;35.33;14.00;;;4.40;85.40;;;;;;5117896;28;20038;-93
2024/03/08 08:17:45;;;;;;;36.58;15.25;;;4.40;85.20;;;;;;5080557;28;20743;-94
2024/03/08 08:20:12;;;;;;;35.30;14.93;;;4.50;85.60;;;;;;5091472;28;20009;-94
2024/03/08 08:22:45;;;;;;;31.85;14.90;;;4.40;84.40;;;;;;5098748;28;20028;-92
2024/03/08 08:25:15;;;;;;;32.92;15.52;;;4.60;85.40;;;;;;5100963;28;20031;-94
2024/03/08 08:27:43;;;;;;;38.42;16.70;;;4.60;83.70;;;;;;5100120;28;20020;-93
2024/03/08 08:30:11;;;;;;;35.25;15.18;;;4.70;84.70;;;;;;5095805;28;20089;-92
2024/03/08 08:32:37;;;;;;;33.92;15.32;;;4.80;83.60;;;;;;5114889;28;20047;-94
2024/03/08 08:35:15;;;;;;;34.58;15.02;;;4.90;82.80;;;;;;5097595;28;20020;-92
2024/03/08 08:37:41;;;;;;;30.60;15.20;;;4.90;82.20;;;;;;5074769;28;20092;-92
2024/03/08 08:40:14;;;;;;;32.25;15.82;;;4.90;82.90;;;;;;5074156;28;20024;-94
2024/03/08 08:42:40;;;;;;;31.00;14.73;;;5.00;82.50;;;;;;5085079;28;20033;-92
2024/03/08 08:45:10;;;;;;;32.90;14.85;;;5.10;82.50;;;;;;5092090;28;20096;-93
2024/03/08 08:47:36;;;;;;;36.25;16.02;;;5.20;82.40;;;;;;5077306;28;20032;-92
2024/03/08 08:50:07;;;;;;;34.85;16.63;;;5.30;81.70;;;;;;5094099;28;20103;-93
2024/03/08 08:52:32;;;;;;;36.15;16.38;;;5.40;81.00;;;;;;5083127;28;20077;-92
2024/03/08 08:54:58;;;;;;;34.72;16.15;;;5.40;81.30;;;;;;5098417;28;20028;-93
2024/03/08 08:57:24;;;;;;;34.95;15.18;;;5.50;81.50;;;;;;5067747;28;20032;-93
2024/03/08 08:59:50;;;;;;;36.13;18.15;;;5.50;80.40;;;;;;5088951;28;20363;-93
2024/03/08 09:02:16;;;;;;;34.15;15.25;;;5.70;80.10;;;;;;5066031;28;20077;-93
2024/03/08 09:04:43;;;;;;;37.75;15.15;;;5.70;80.40;;;;;;5095944;28;20029;-93
2024/03/08 09:07:09;;;;;;;31.98;12.88;;;5.80;79.30;;;;;;5066365;28;20028;-91
2024/03/08 09:09:37;;;;;;;36.28;16.17;;;5.90;78.10;;;;;;5079884;28;20089;-93
2024/03/08 09:12:03;;;;;;;31.63;14.93;;;6.00;78.40;;;;;;5094555;28;20040;-93
2024/03/08 09:14:29;;;;;;;32.75;14.68;;;6.10;77.70;;;;;;5093523;28;20035;-93
2024/03/08 09:16:55;;;;;;;33.53;14.10;;;6.20;75.90;;;;;;5094199;28;20021;-93
2024/03/08 09:19:23;;;;;;;34.72;14.60;;;6.20;76.60;;;;;;5070414;28;20127;-93
2024/03/08 09:21:49;;;;;;;30.95;13.25;;;6.20;75.60;;;;;;5097377;28;20059;-93
2024/03/08 09:24:15;;;;;;;29.23;13.43;;;6.20;75.70;;;;;;5045026;28;20028;-93
2024/03/08 09:26:43;;;;;;;35.63;14.85;;;6.30;75.70;;;;;;5045662;28;20101;-93
2024/03/08 09:29:15;;;;;;;28.92;12.82;;;6.50;77.10;;;;;;5036386;28;20077;-91
2024/03/08 09:31:41;;;;;;;34.55;12.80;;;6.70;74.40;;;;;;5079525;28;20000;-92
2024/03/08 09:34:08;;;;;;;33.58;15.35;;;6.80;73.50;;;;;;5045142;28;20042;-94
2024/03/08 09:36:34;;;;;;;33.42;13.40;;;6.70;73.20;;;;;;5025438;28;20052;-91
2024/03/08 09:39:00;;;;;;;30.15;13.93;;;6.60;73.10;;;;;;5032200;28;20055;-94
2024/03/08 09:41:27;;;;;;;34.15;14.65;;;6.80;72.90;;;;;;5055643;28;20027;-93
2024/03/08 09:43:55;;;;;;;31.58;13.40;;;6.90;72.10;;;;;;5048549;28;20044;-93
2024/03/08 09:46:33;;;;;;;29.77;14.45;;;6.90;71.70;;;;;;5033294;28;20084;-90
2024/03/08 09:49:01;;;;;;;32.45;14.90;;;7.00;73.10;;;;;;5065577;28;20032;-92
2024/03/08 09:51:31;;;;;;;31.58;13.80;;;7.40;72.40;;;;;;5048884;28;20067;-94
2024/03/08 09:53:58;;;;;;;30.20;12.48;;;7.50;70.80;;;;;;5035513;28;20020;-93
2024/03/08 09:56:25;;;;;;;30.92;14.32;;;7.80;67.90;;;;;;5047639;28;21048;-93
2024/03/08 09:59:07;;;;;;;30.73;15.07;;;7.80;68.10;;;;;;5046765;28;20062;-94
2024/03/08 10:01:33;;;;;;;31.25;13.57;;;7.80;67.70;;;;;;5049899;28;20484;-93
2024/03/08 10:03:59;;;;;;;26.67;14.00;;;7.90;66.50;;;;;;5055937;28;20020;-93
2024/03/08 10:06:25;;;;;;;29.70;15.30;;;7.80;66.50;;;;;;5033989;28;20214;-93
2024/03/08 10:08:55;;;;;;;26.40;13.52;;;7.80;66.50;;;;;;5055446;28;20084;-94
2024/03/08 10:11:21;;;;;;;34.05;14.75;;;7.90;66.20;;;;;;5058866;28;20024;-94
2024/03/08 10:13:49;;;;;;;28.60;14.63;;;8.00;65.70;;;;;;5058389;28;20036;-94
2024/03/08 10:16:17;;;;;;;30.90;12.77;;;8.10;65.80;;;;;;5063679;28;20023;-90
2024/03/08 10:18:44;;;;;;;28.73;13.40;;;8.20;64.00;;;;;;5048489;28;20044;-94
2024/03/08 10:21:11;;;;;;;;;;;8.20;64.00;;;;;;5054028;28;20063;-91
2024/03/08 10:23:37;;;;;;;27.27;11.20;;;8.00;64.40;;;;;;5066000;28;19916;-94
2024/03/08 10:26:21;;;;;;;32.85;15.45;;;8.20;64.30;;;;;;5053901;28;20028;-90
2024/03/08 10:28:48;;;;;;;29.85;13.20;;;8.10;64.30;;;;;;5084559;28;20127;-94
2024/03/08 10:31:19;;;;;;;27.00;12.68;;;8.40;63.20;;;;;;5067119;28;20035;-92
2024/03/08 10:33:45;;;;;;;30.88;14.40;;;8.70;62.30;;;;;;5044481;28;20495;-94
2024/03/08 10:36:13;;;;;;;33.58;14.20;;;8.80;63.00;;;;;;5027887;28;20024;-95
2024/03/08 10:38:41;;;;;;;29.08;13.77;;;9.00;61.70;;;;;;5031436;28;20056;-93
2024/03/08 10:41:12;;;;;;;28.65;13.95;;;9.10;61.10;;;;;;5049504;28;20028;-92
2024/03/08 10:44:08;;;;;;;26.85;12.55;;;9.20;59.70;;;;;;5035149;28;20024;-95
2024/03/08 10:47:09;;;;;;;24.75;13.13;;;9.30;59.20;;;;;;5056467;28;20029;-93
2024/03/08 10:49:44;;;;;;;32.05;15.40;;;9.50;58.40;;;;;;5035668;28;20119;-94
2024/03/08 10:52:22;;;;;;;29.95;13.75;;;9.60;59.50;;;;;;5062284;28;20024;-91
2024/03/08 10:54:51;;;;;;;27.73;13.15;;;9.90;56.90;;;;;;5060146;28;20054;-94
2024/03/08 10:57:20;;;;;;;26.02;13.68;;;9.80;56.50;;;;;;5042262;28;20032;-93
2024/03/08 10:59:57;;;;;;;31.58;14.88;;;9.80;55.90;;;;;;5054980;28;20115;-93
2024/03/08 11:02:25;;;;;;;24.73;14.07;;;9.90;56.00;;;;;;5042336;28;20028;-94
2024/03/08 11:04:52;;;;;;;29.40;14.15;;;9.70;56.90;;;;;;5051414;28;20024;-94
2024/03/08 11:07:23;;;;;;;27.52;14.05;;;9.90;56.00;;;;;;5064779;28;20024;-95
2024/03/08 11:09:49;;;;;;;25.50;12.23;;;10.00;56.50;;;;;;5072821;28;20100;-92
2024/03/08 11:12:29;;;;;;;26.95;12.90;;;10.20;55.90;;;;;;5043663;28;20044;-95
2024/03/08 11:15:09;;;;;;;30.95;14.32;;;10.30;55.00;;;;;;5043321;28;20059;-94
2024/03/08 11:17:37;;;;;;;27.77;13.73;;;10.40;54.20;;;;;;5035758;28;20101;-93
2024/03/08 11:20:20;;;;;;;26.77;13.32;;;10.50;53.50;;;;;;5038414;28;20028;-90
2024/03/08 11:22:53;;;;;;;27.65;13.02;;;10.50;53.50;;;;;;5051359;28;20042;-92
2024/03/08 11:25:32;;;;;;;26.20;13.30;;;10.50;54.10;;;;;;5056933;28;20055;-91
2024/03/08 11:28:16;;;;;;;29.75;16.30;;;10.70;53.30;;;;;;5060153;28;20391;-93
2024/03/08 11:31:02;;;;;;;24.17;12.35;;;10.90;53.10;;;;;;5063923;28;20397;-93
2024/03/08 11:33:34;;;;;;;24.15;13.30;;;11.20;52.30;;;;;;5011682;28;20029;-93
2024/03/08 11:36:21;;;;;;;25.25;13.18;;;11.30;50.80;;;;;;5039525;28;20043;-93
2024/03/08 11:38:48;;;;;;;28.08;13.10;;;11.40;49.50;;;;;;5053666;28;20044;-93
2024/03/08 11:41:19;;;;;;;35.47;13.00;;;11.40;49.90;;;;;;5051136;28;20027;-94
2024/03/08 11:43:45;;;;;;;25.30;13.32;;;11.40;50.60;;;;;;5073638;28;20024;-94
2024/03/08 11:46:12;;;;;;;26.92;12.93;;;11.40;49.50;;;;;;5069139;28;20054;-95
2024/03/08 11:48:41;;;;;;;23.60;12.35;;;11.30;49.70;;;;;;5064183;28;20032;-93
2024/03/08 11:51:18;;;;;;;23.23;12.20;;;11.70;50.80;;;;;;5035888;28;20085;-91
2024/03/08 11:53:45;;;;;;;25.25;13.45;;;11.50;48.50;;;;;;5022386;28;20029;-93
2024/03/08 11:56:12;;;;;;;23.60;12.55;;;11.80;48.90;;;;;;5053063;28;20017;-94
2024/03/08 11:58:40;;;;;;;24.83;14.38;;;12.00;48.20;;;;;;5050710;28;21261;-94
2024/03/08 12:01:12;;;;;;;27.10;14.38;;;12.30;47.40;;;;;;5073436;28;20549;-90
2024/03/08 12:03:44;;;;;;;22.73;12.38;;;12.30;48.00;;;;;;5040901;28;20194;-93
2024/03/08 12:06:10;;;;;;;23.55;13.10;;;12.60;45.30;;;;;;5045986;28;20482;-94
2024/03/08 12:08:40;;;;;;;25.80;12.00;;;12.40;46.10;;;;;;5019988;28;20086;-95
2024/03/08 12:11:06;;;;;;;24.20;12.10;;;12.40;47.00;;;;;;5047458;28;20077;-92
2024/03/08 12:13:33;;;;;;;21.75;12.13;;;12.20;46.50;;;;;;5059346;28;20043;-93
2024/03/08 12:16:03;;;;;;;24.85;13.65;;;12.80;45.70;;;;;;5037908;28;20032;-94
2024/03/08 12:18:32;;;;;;;31.35;13.27;;;13.10;44.40;;;;;;5027183;28;20058;-93
2024/03/08 12:21:13;;;;;;;23.55;11.57;;;13.00;44.90;;;;;;5045624;28;20024;-93
2024/03/08 12:23:39;;;;;;;22.70;13.23;;;13.20;45.10;;;;;;5014339;28;20375;-94
2024/03/08 12:26:24;;;;;;;23.42;12.45;;;13.10;44.30;;;;;;5014291;28;20088;-92
2024/03/08 12:28:50;;;;;;;24.45;12.75;;;13.00;44.90;;;;;;5038245;28;20084;-93
2024/03/08 12:31:22;;;;;;;22.10;11.38;;;13.00;45.30;;;;;;5029652;28;20100;-92
2024/03/08 12:33:52;;;;;;;23.02;12.48;;;13.00;45.00;;;;;;5033481;28;20039;-94
2024/03/08 12:36:19;;;;;;;24.30;12.52;;;12.80;45.20;;;;;;5058494;28;20067;-94
2024/03/08 12:38:48;;;;;;;22.35;12.75;;;13.10;45.70;;;;;;5042462;28;20035;-94
2024/03/08 12:41:21;;;;;;;23.90;13.45;;;13.10;44.50;;;;;;5058707;28;20047;-91
2024/03/08 12:43:48;;;;;;;18.40;12.20;;;13.40;44.00;;;;;;5090389;28;20024;-91
2024/03/08 12:46:21;;;;;;;22.58;11.70;;;13.70;43.20;;;;;;5031557;28;20024;-92